Main page
METAR-TAF:

METAR-TAF

Airports :

Fasa, Iran

latitude: 28-58N, longitude: 053-41E, elevation: 1383 m

Current weather observation

The report was made 43 minutes ago, at 04:00 UTC
Wind 4 kt from the North
Temperature 3°C
Humidity 41%
Pressure 1026 hPa
Visibility 10 km or more
no clouds below 1500 m and no cumulonimbus

METAR: OISF 090400Z 36004KT CAVOK 03/M09 Q1026 A3031

Time: 08:13 (04:43 UTC)


TAF: missing

Weather observations and forecasts of more than 4000 airports (METAR and TAF reports).

The available stations are represented by yellow and red dots on the map.

Hover mouse over dot to see the name of the station.

Then click to see weather observations and forecasts.

To change the map : click on the green buttons with a black cross to zoom in, on the green button with a dash to zoom out, or on the green arrows for adjacent maps.


METAR-TAF: